ePrivacy and GPDR Cookie Consent by Cookie Consent
EmailTwitter


Surface observations / France / LFBO (07630)

Regions: Quebec | Canada | USA | Europe | France | UK | Elsewhere
Station
Display
Info & Location for LFBO (07630) | Help decoding METAR

Weather Conditions observed on 2023/12/10 at 22:30 UTC at TOULOUSE/BLAGNAC, FR (LFBO)

Temperature: 13.0 Celsius.

Dewpoint: 12.0 Celsius.

Relative Humidity: 94%

Winds: South at 13 km/h or 7 knots.

Mean Sea level Pressure: 101.80 kilopascals.

Coded METAR:

LFBO 102230Z AUTO 19007KT CAVOK 13/12 Q1018 NOSIG=